Heniches'K, Ukraine
Current Conditions -  °F | °C
As of 9:30 AM on Thursday 27 Nov 2014 (Local Time) from URFF Reporting Station
Light Snow Light Snow  
Wind Chill: 20°   Ceiling: 300
Heat Index: 28°   Visibility: 1.3mi
Dew Point: 27°   Wind: 9mph
Humidity: 93%   Direction: 30°NNE
Pressure: 30.18"   Gusts: NA
Location:  46.17°N, 34.81°E
Report Text: URFF 270630Z 03004MPS 2100 -SG BR OVC003 M02/M03 Q1022 01590345BECMG 1100 SN BR
Loading
Personal Weather Stations






























Interactive Weather Map New forecast layout! Learn more

10-Day Weather Forecast

Advertisements
Track Severe Weather on mobile